createdAt,value
2023-08-15T00:01:45.835Z,94469.84
2023-08-15T00:04:12.625Z,94470.88
2023-08-15T00:06:39.429Z,94466.16
2023-08-15T00:09:06.436Z,94463.53
2023-08-15T00:11:33.299Z,94467.78
2023-08-15T00:14:00.066Z,94461.44
2023-08-15T00:16:27.054Z,94463.81
2023-08-15T00:18:53.848Z,94463.00
2023-08-15T00:21:20.729Z,94459.00
2023-08-15T00:23:47.755Z,94466.84
2023-08-15T00:26:14.971Z,94471.31
2023-08-15T00:28:42.149Z,94454.19
2023-08-15T00:31:09.000Z,94464.75
2023-08-15T00:33:35.789Z,94460.06
2023-08-15T00:36:04.887Z,94465.53
2023-08-15T00:38:31.670Z,94472.91
2023-08-15T00:40:58.405Z,94458.69
2023-08-15T00:43:25.337Z,94468.66
2023-08-15T00:45:52.190Z,94476.53
2023-08-15T00:48:19.543Z,94476.31
2023-08-15T00:50:49.187Z,94452.38
2023-08-15T00:53:16.031Z,94473.94
2023-08-15T00:55:43.042Z,94477.81
2023-08-15T00:58:09.891Z,94462.81
2023-08-15T01:00:36.692Z,94465.38
2023-08-15T01:03:04.733Z,94467.78
2023-08-15T01:05:31.698Z,94466.97
2023-08-15T01:07:58.459Z,94466.47
2023-08-15T01:10:25.182Z,94468.56
2023-08-15T01:13:02.893Z,94466.41
2023-08-15T01:15:31.622Z,94466.22
2023-08-15T01:18:11.488Z,94457.13
2023-08-15T01:20:39.091Z,94465.47
2023-08-15T01:23:08.800Z,94462.59
2023-08-15T01:25:43.890Z,94461.06
2023-08-15T01:28:14.654Z,94440.78
2023-08-15T01:31:20.634Z,94453.94
2023-08-15T01:34:01.449Z,94458.34
2023-08-15T01:36:33.621Z,94447.84
2023-08-15T01:39:05.390Z,94453.19
2023-08-15T01:41:40.251Z,94457.34
2023-08-15T01:44:12.630Z,94456.72
2023-08-15T01:46:39.523Z,94451.66
2023-08-15T01:49:06.382Z,94440.66
2023-08-15T01:51:33.123Z,94444.03
2023-08-15T01:53:59.963Z,94426.59
2023-08-15T01:56:26.785Z,94450.31
2023-08-15T01:58:53.625Z,94449.19
2023-08-15T02:01:20.402Z,94443.19
2023-08-15T02:03:47.161Z,94445.56
2023-08-15T02:06:13.971Z,94449.53
2023-08-15T02:08:40.779Z,94445.75
2023-08-15T02:11:07.714Z,94448.97
2023-08-15T02:13:35.076Z,94449.31
2023-08-15T02:16:02.595Z,94441.47
2023-08-15T02:18:33.243Z,94442.16
2023-08-15T02:21:00.019Z,94447.28
2023-08-15T02:23:27.062Z,94446.16
2023-08-15T02:25:53.812Z,94442.50
2023-08-15T02:28:20.650Z,94442.75
2023-08-15T02:30:47.505Z,94445.22
2023-08-15T02:33:14.300Z,94451.59
2023-08-15T02:35:42.369Z,94446.88
2023-08-15T02:38:09.524Z,94442.50
2023-08-15T02:40:36.337Z,94436.16
2023-08-15T02:43:03.228Z,94432.00
2023-08-15T02:45:30.066Z,94433.22
2023-08-15T02:47:56.812Z,94430.28
2023-08-15T02:50:23.733Z,94437.53
2023-08-15T02:52:50.527Z,94427.78
2023-08-15T02:55:17.449Z,94438.91
2023-08-15T02:57:44.305Z,94433.91
2023-08-15T03:00:11.961Z,94436.47
2023-08-15T03:02:41.269Z,94417.41
2023-08-15T03:05:08.307Z,94411.72
2023-08-15T03:07:35.178Z,94416.19
2023-08-15T03:10:02.071Z,94431.63
2023-08-15T03:12:30.375Z,94434.63
2023-08-15T03:14:59.003Z,94435.78
2023-08-15T03:17:25.966Z,94433.66
2023-08-15T03:19:54.459Z,94440.97
2023-08-15T03:22:21.242Z,94441.13
2023-08-15T03:24:48.029Z,94433.16
2023-08-15T03:27:14.824Z,94437.84
2023-08-15T03:29:41.593Z,94437.03
2023-08-15T03:32:08.431Z,94438.72
2023-08-15T03:34:35.261Z,94438.63
2023-08-15T03:37:02.024Z,94437.75
2023-08-15T03:39:28.736Z,94434.00
2023-08-15T03:41:55.551Z,94440.06
2023-08-15T03:44:22.400Z,94435.34
2023-08-15T03:46:49.375Z,94440.47
2023-08-15T03:49:16.144Z,94438.72
2023-08-15T03:51:46.974Z,94448.75
2023-08-15T03:54:14.742Z,94449.41
2023-08-15T03:56:41.719Z,94445.84
2023-08-15T03:59:08.557Z,94456.97
2023-08-15T04:01:35.473Z,94456.16
2023-08-15T04:04:02.468Z,94460.94
2023-08-15T04:06:29.311Z,94455.56
2023-08-15T04:08:56.085Z,94460.88
2023-08-15T04:11:22.778Z,94457.13
2023-08-15T04:13:49.537Z,94460.31
2023-08-15T04:16:16.640Z,94456.19
2023-08-15T04:18:43.356Z,94464.91
2023-08-15T04:21:11.928Z,94463.19
2023-08-15T04:23:38.647Z,94460.31
2023-08-15T04:26:05.434Z,94460.38
2023-08-15T04:28:32.358Z,94452.69
2023-08-15T04:30:59.245Z,94459.06
2023-08-15T04:33:25.968Z,94466.00
2023-08-15T04:35:52.697Z,94457.47
2023-08-15T04:38:19.469Z,94463.19
2023-08-15T04:40:46.309Z,94456.88
2023-08-15T04:43:13.048Z,94457.97
2023-08-15T04:45:44.656Z,94473.91
2023-08-15T04:48:12.689Z,94468.34
2023-08-15T04:50:39.807Z,94476.44
2023-08-15T04:53:07.471Z,94463.34
2023-08-15T04:55:34.417Z,94461.34
2023-08-15T04:58:01.164Z,94447.78
2023-08-15T05:00:27.959Z,94464.28
2023-08-15T05:02:54.793Z,94454.59
2023-08-15T05:05:21.590Z,94459.59
2023-08-15T05:07:48.313Z,94458.81
2023-08-15T05:10:15.120Z,94456.56
2023-08-15T05:12:41.914Z,94459.47
2023-08-15T05:15:09.418Z,94463.69
2023-08-15T05:17:36.687Z,94445.56
2023-08-15T05:20:04.842Z,94461.28
2023-08-15T05:22:32.999Z,94457.72
2023-08-15T05:24:59.833Z,94459.22
2023-08-15T05:27:26.620Z,94463.84
2023-08-15T05:29:53.428Z,94459.75
2023-08-15T05:32:20.178Z,94458.72
2023-08-15T05:34:46.922Z,94461.13
2023-08-15T05:37:13.640Z,94457.66
2023-08-15T05:39:40.434Z,94459.00
2023-08-15T05:42:07.851Z,94457.13
2023-08-15T05:44:34.612Z,94465.13
2023-08-15T05:47:01.362Z,94473.31
2023-08-15T05:49:28.193Z,94464.09
2023-08-15T05:51:55.292Z,94458.25
2023-08-15T05:54:22.969Z,94470.28
2023-08-15T05:56:49.756Z,94457.66
2023-08-15T05:59:16.553Z,94463.00
2023-08-15T06:01:43.456Z,94457.88
2023-08-15T06:04:10.306Z,94464.09
2023-08-15T06:06:37.269Z,94466.84
2023-08-15T06:09:04.977Z,94466.06
2023-08-15T06:11:31.808Z,94467.09
2023-08-15T06:13:58.578Z,94405.50
2023-08-15T06:16:25.373Z,94467.69
2023-08-15T06:18:52.200Z,94463.56
2023-08-15T06:21:18.911Z,94452.34
2023-08-15T06:23:45.687Z,94456.97
2023-08-15T06:26:12.400Z,94450.47
2023-08-15T06:28:39.194Z,94449.13
2023-08-15T06:31:05.917Z,94456.94
2023-08-15T06:33:32.911Z,94459.31
2023-08-15T06:35:59.829Z,94456.69
2023-08-15T06:38:26.678Z,94458.72
2023-08-15T06:40:53.483Z,94463.81
2023-08-15T06:43:20.263Z,94465.59
2023-08-15T06:45:47.128Z,94454.94
2023-08-15T06:48:13.865Z,94450.84
2023-08-15T06:50:41.117Z,94449.59
2023-08-15T06:53:07.942Z,94449.22
2023-08-15T06:55:34.704Z,94448.53
2023-08-15T06:58:02.595Z,94444.09
2023-08-15T07:00:29.627Z,94448.25
2023-08-15T07:02:56.859Z,94444.31
2023-08-15T07:05:23.629Z,94443.75
2023-08-15T07:07:50.443Z,94439.56
2023-08-15T07:10:17.317Z,94442.06
2023-08-15T07:12:45.151Z,94437.75
2023-08-15T07:15:14.220Z,94436.66
2023-08-15T07:17:41.676Z,94441.00
2023-08-15T07:20:10.639Z,94434.88
2023-08-15T07:22:37.576Z,94439.13
2023-08-15T07:25:04.638Z,94435.50
2023-08-15T07:27:31.395Z,94435.50
2023-08-15T07:29:58.304Z,94438.00
2023-08-15T07:32:25.471Z,94439.25
2023-08-15T07:34:52.732Z,94442.41
2023-08-15T07:37:19.511Z,94430.78
2023-08-15T07:39:46.282Z,94440.78
2023-08-15T07:42:13.297Z,94425.34
2023-08-15T07:44:40.044Z,94431.47
2023-08-15T07:47:06.878Z,94423.63
2023-08-15T07:49:33.771Z,94425.59
2023-08-15T07:52:05.803Z,94434.28
2023-08-15T07:54:32.658Z,94426.41
2023-08-15T07:56:59.421Z,94418.78
2023-08-15T07:59:26.190Z,94419.22
2023-08-15T08:01:53.029Z,94426.13
2023-08-15T08:04:22.737Z,94429.28
2023-08-15T08:06:50.516Z,94427.56
2023-08-15T08:09:17.385Z,94425.50
2023-08-15T08:11:45.665Z,94420.66
2023-08-15T08:14:12.417Z,94423.00
2023-08-15T08:16:39.251Z,94421.56
2023-08-15T08:19:06.168Z,94420.03
2023-08-15T08:21:34.813Z,94426.91
2023-08-15T08:24:01.609Z,94423.66
2023-08-15T08:26:30.367Z,94420.00
2023-08-15T08:28:57.080Z,94412.56
2023-08-15T08:31:23.875Z,94421.91
2023-08-15T08:33:50.690Z,94420.16
2023-08-15T08:36:17.610Z,94409.63
2023-08-15T08:38:44.388Z,94415.00
2023-08-15T08:41:11.153Z,94403.84
2023-08-15T08:43:38.474Z,94397.84
2023-08-15T08:46:05.665Z,94399.81
2023-08-15T08:48:33.643Z,94393.84
2023-08-15T08:51:00.687Z,94391.31
2023-08-15T08:53:27.710Z,94397.31
2023-08-15T08:55:54.568Z,94392.59
2023-08-15T08:58:22.880Z,94389.09
2023-08-15T09:00:51.424Z,94386.28
2023-08-15T09:03:19.767Z,94386.28
2023-08-15T09:05:46.652Z,94382.81
2023-08-15T09:08:13.641Z,94381.06
2023-08-15T09:10:40.420Z,94379.16
2023-08-15T09:13:07.314Z,94387.13
2023-08-15T09:15:35.508Z,94370.66
2023-08-15T09:18:06.315Z,94367.38
2023-08-15T09:20:33.650Z,94364.00
2023-08-15T09:23:01.091Z,94366.34
2023-08-15T09:25:28.669Z,94368.41
2023-08-15T09:27:55.873Z,94353.59
2023-08-15T09:30:23.106Z,94356.75
2023-08-15T09:32:50.367Z,94358.50
2023-08-15T09:35:19.257Z,94360.28
2023-08-15T09:37:50.885Z,94359.75
2023-08-15T09:40:19.937Z,94349.97
2023-08-15T09:42:47.105Z,94351.94
2023-08-15T09:45:14.472Z,94350.63
2023-08-15T09:47:41.723Z,94348.25
2023-08-15T09:50:10.879Z,94343.72
2023-08-15T09:52:40.366Z,94348.78
2023-08-15T09:55:11.652Z,94346.88
2023-08-15T09:57:48.057Z,94345.00
2023-08-15T10:00:18.797Z,94342.28
2023-08-15T10:02:54.773Z,94331.69
2023-08-15T10:05:22.893Z,94333.16
2023-08-15T10:07:50.496Z,94331.34
2023-08-15T10:10:18.419Z,94317.69
2023-08-15T10:12:46.873Z,94323.06
2023-08-15T10:15:14.414Z,94321.97
2023-08-15T10:17:41.517Z,94323.66
2023-08-15T10:20:14.869Z,94315.50
2023-08-15T10:22:41.669Z,94318.50
2023-08-15T10:25:24.063Z,94317.50
2023-08-15T10:27:53.283Z,94318.25
2023-08-15T10:30:35.240Z,94318.41
2023-08-15T10:33:12.841Z,94308.78
2023-08-15T10:35:55.978Z,94310.47
2023-08-15T10:38:25.597Z,94310.66
2023-08-15T10:40:53.977Z,94305.88
2023-08-15T10:43:25.721Z,94301.00
2023-08-15T10:45:57.409Z,94301.66
2023-08-15T10:49:00.113Z,94295.63
2023-08-15T10:51:38.051Z,94302.88
2023-08-15T10:54:13.424Z,94298.72
2023-08-15T10:56:42.046Z,94291.25
2023-08-15T10:59:16.651Z,94288.13
2023-08-15T11:01:47.317Z,94290.69
2023-08-15T11:04:18.917Z,94290.22
2023-08-15T11:06:50.052Z,94284.00
2023-08-15T11:09:17.903Z,94283.66
2023-08-15T11:11:48.141Z,94289.34
2023-08-15T11:14:19.172Z,94283.84
2023-08-15T11:16:47.634Z,94268.97
2023-08-15T11:19:21.106Z,94265.56
2023-08-15T11:21:49.386Z,94264.75
2023-08-15T11:24:16.537Z,94272.28
2023-08-15T11:26:43.346Z,94262.97
2023-08-15T11:29:12.003Z,94266.09
2023-08-15T11:31:39.087Z,94264.63
2023-08-15T11:34:06.528Z,94253.13
2023-08-15T11:36:33.390Z,94256.34
2023-08-15T11:39:04.542Z,94260.84
2023-08-15T11:41:34.957Z,94249.13
2023-08-15T11:44:02.863Z,94243.88
2023-08-15T11:46:36.387Z,94241.34
2023-08-15T11:49:22.470Z,94244.09
2023-08-15T11:51:49.293Z,94246.19
2023-08-15T11:54:16.237Z,94235.34
2023-08-15T11:56:53.997Z,94241.47
2023-08-15T11:59:21.090Z,94234.41
2023-08-15T12:01:49.453Z,94237.38
2023-08-15T12:04:19.504Z,94229.72
2023-08-15T12:06:46.408Z,94218.88
2023-08-15T12:09:13.516Z,94219.59
2023-08-15T12:11:40.432Z,94225.16
2023-08-15T12:14:07.245Z,94222.03
2023-08-15T12:16:34.037Z,94211.44
2023-08-15T12:19:00.812Z,94208.91
2023-08-15T12:21:27.634Z,94208.50
2023-08-15T12:23:54.430Z,94198.78
2023-08-15T12:26:21.247Z,94204.75
2023-08-15T12:28:47.999Z,94202.28
2023-08-15T12:31:14.932Z,94197.44
2023-08-15T12:33:46.867Z,94198.69
2023-08-15T12:36:16.034Z,94182.66
2023-08-15T12:38:43.666Z,94189.09
2023-08-15T12:41:10.519Z,94188.97
2023-08-15T12:43:37.914Z,94179.97
2023-08-15T12:46:05.352Z,94182.59
2023-08-15T12:48:32.263Z,94183.53
2023-08-15T12:51:00.920Z,94173.25
2023-08-15T12:53:27.965Z,94177.63
2023-08-15T12:55:54.972Z,94166.19
2023-08-15T12:58:21.893Z,94164.78
2023-08-15T13:00:50.441Z,94165.91
2023-08-15T13:03:19.362Z,94165.13
2023-08-15T13:05:47.722Z,94163.56
2023-08-15T13:08:17.200Z,94165.13
2023-08-15T13:10:44.820Z,94161.31
2023-08-15T13:13:11.923Z,94139.63
2023-08-15T13:15:39.011Z,94147.78
2023-08-15T13:18:06.211Z,94145.72
2023-08-15T13:20:33.621Z,94149.34
2023-08-15T13:23:00.660Z,94136.25
2023-08-15T13:25:27.980Z,94131.72
2023-08-15T13:27:54.750Z,94130.66
2023-08-15T13:30:21.661Z,94125.31
2023-08-15T13:32:48.652Z,94117.25
2023-08-15T13:35:15.478Z,94113.50
2023-08-15T13:37:43.222Z,94113.31
2023-08-15T13:40:11.449Z,94115.41
2023-08-15T13:42:40.642Z,94108.69
2023-08-15T13:45:09.696Z,94098.88
2023-08-15T13:47:39.294Z,94102.16
2023-08-15T13:50:07.034Z,94097.63
2023-08-15T13:52:34.172Z,94093.44
2023-08-15T13:55:01.149Z,94090.50
2023-08-15T13:57:28.267Z,94086.75
2023-08-15T13:59:55.981Z,94086.91
2023-08-15T14:02:22.857Z,94089.03
2023-08-15T14:04:49.819Z,94079.88
2023-08-15T14:07:16.826Z,94081.59
2023-08-15T14:09:43.552Z,94077.06
2023-08-15T14:12:10.504Z,94081.91
2023-08-15T14:14:38.205Z,94076.94
2023-08-15T14:17:07.234Z,94081.66
2023-08-15T14:19:34.095Z,94079.03
2023-08-15T14:22:00.918Z,94082.97
2023-08-15T14:24:27.700Z,94088.97
2023-08-15T14:26:54.470Z,94082.38
2023-08-15T14:29:21.296Z,94075.06
2023-08-15T14:31:48.065Z,94076.28
2023-08-15T14:34:15.713Z,94080.47
2023-08-15T14:36:42.507Z,94071.34
2023-08-15T14:39:09.484Z,94072.75
2023-08-15T14:41:36.325Z,94058.91
2023-08-15T14:44:03.275Z,94062.22
2023-08-15T14:46:30.065Z,94070.69
2023-08-15T14:48:57.009Z,94067.06
2023-08-15T14:51:23.830Z,94064.94
2023-08-15T14:53:50.716Z,94063.16
2023-08-15T14:56:18.635Z,94069.22
2023-08-15T14:58:46.542Z,94070.31
2023-08-15T15:01:13.590Z,94069.00
2023-08-15T15:03:40.864Z,94068.59
2023-08-15T15:06:07.800Z,94072.31
2023-08-15T15:08:34.783Z,94074.00
2023-08-15T15:11:04.553Z,94073.34
2023-08-15T15:13:31.719Z,94071.50
2023-08-15T15:15:58.533Z,94068.28
2023-08-15T15:18:25.421Z,94059.13
2023-08-15T15:20:52.365Z,94067.53
2023-08-15T15:23:19.501Z,94062.59
2023-08-15T15:25:46.830Z,94063.03
2023-08-15T15:28:13.753Z,94058.38
2023-08-15T15:30:41.106Z,94052.59
2023-08-15T15:33:08.040Z,94057.13
2023-08-15T15:35:34.932Z,94056.25
2023-08-15T15:38:01.838Z,94048.25
2023-08-15T15:40:28.649Z,94056.94
2023-08-15T15:42:55.389Z,94058.06
2023-08-15T15:45:22.235Z,94070.78
2023-08-15T15:47:49.119Z,94065.47
2023-08-15T15:50:21.345Z,94060.59
2023-08-15T15:52:48.766Z,94076.66
2023-08-15T15:55:20.829Z,94071.47
2023-08-15T15:57:47.779Z,94084.25
2023-08-15T16:00:17.254Z,94095.19
2023-08-15T16:02:44.636Z,94098.34
2023-08-15T16:05:12.570Z,94095.88
2023-08-15T16:07:39.417Z,94097.59
2023-08-15T16:10:07.642Z,94107.63
2023-08-15T16:12:34.536Z,94110.59
2023-08-15T16:15:01.924Z,94111.06
2023-08-15T16:17:29.406Z,94112.59
2023-08-15T16:19:56.799Z,94106.69
2023-08-15T16:22:24.239Z,94120.41
2023-08-15T16:24:51.697Z,94123.97
2023-08-15T16:27:18.542Z,94125.75
2023-08-15T16:29:45.428Z,94126.03
2023-08-15T16:32:14.976Z,94135.88
2023-08-15T16:34:43.884Z,94134.50
2023-08-15T16:37:10.826Z,94135.16
2023-08-15T16:39:37.715Z,94129.28
2023-08-15T16:42:04.929Z,94132.09
2023-08-15T16:44:31.702Z,94135.94
2023-08-15T16:46:58.624Z,94137.88
2023-08-15T16:49:25.575Z,94142.28
2023-08-15T16:51:52.408Z,94142.19
2023-08-15T16:54:19.370Z,94150.41
2023-08-15T16:56:46.218Z,94150.75
2023-08-15T16:59:13.081Z,94148.44
2023-08-15T17:01:40.126Z,94149.09
2023-08-15T17:04:07.255Z,94158.06
2023-08-15T17:06:34.271Z,94155.31
2023-08-15T17:09:01.041Z,94165.97
2023-08-15T17:11:27.986Z,94167.06
2023-08-15T17:13:54.738Z,94170.69
2023-08-15T17:16:21.689Z,94177.28
2023-08-15T17:18:48.600Z,94184.81
2023-08-15T17:21:15.501Z,94179.66
2023-08-15T17:23:43.017Z,94190.66
2023-08-15T17:26:09.900Z,94197.09
2023-08-15T17:28:36.707Z,94192.78
2023-08-15T17:31:03.599Z,94231.50
2023-08-15T17:33:30.477Z,94226.13
2023-08-15T17:35:57.282Z,94234.75
2023-08-15T17:38:24.038Z,94238.22
2023-08-15T17:40:50.868Z,94243.06
2023-08-15T17:43:17.723Z,94247.59
2023-08-15T17:45:44.542Z,94261.16
2023-08-15T17:48:11.837Z,94260.94
2023-08-15T17:50:38.856Z,94261.00
2023-08-15T17:53:05.729Z,94267.75
2023-08-15T17:55:32.586Z,94262.38
2023-08-15T17:57:59.434Z,94253.56
2023-08-15T18:00:27.848Z,94262.22
2023-08-15T18:02:55.099Z,94271.41
2023-08-15T18:05:22.259Z,94284.75
2023-08-15T18:07:49.064Z,94284.84
2023-08-15T18:10:16.380Z,94304.16
2023-08-15T18:12:43.809Z,94307.13
2023-08-15T18:15:11.721Z,94314.88
2023-08-15T18:17:38.661Z,94319.22
2023-08-15T18:20:06.065Z,94326.31
2023-08-15T18:22:33.046Z,94337.69
2023-08-15T18:24:59.831Z,94350.72
2023-08-15T18:27:26.663Z,94351.72
2023-08-15T18:29:53.940Z,94379.13
2023-08-15T18:32:20.842Z,94377.34
2023-08-15T18:34:47.896Z,94392.56
2023-08-15T18:37:14.729Z,94407.75
2023-08-15T18:39:41.540Z,94399.75
2023-08-15T18:42:08.763Z,94401.72
2023-08-15T18:44:35.610Z,94383.56
2023-08-15T18:47:03.649Z,94400.81
2023-08-15T18:49:31.468Z,94385.94
2023-08-15T18:51:58.312Z,94383.19
2023-08-15T18:54:25.625Z,94394.00
2023-08-15T18:56:52.483Z,94409.84
2023-08-15T18:59:24.147Z,94410.44
2023-08-15T19:01:51.460Z,94420.66
2023-08-15T19:04:18.375Z,94411.66
2023-08-15T19:06:45.275Z,94414.06
2023-08-15T19:09:12.104Z,94435.56
2023-08-15T19:11:39.036Z,94438.41
2023-08-15T19:14:05.962Z,94446.19
2023-08-15T19:16:32.804Z,94462.91
2023-08-15T19:19:04.090Z,94480.59
2023-08-15T19:21:31.393Z,94502.59
2023-08-15T19:23:58.235Z,94492.66
2023-08-15T19:26:25.140Z,94484.59
2023-08-15T19:28:52.521Z,94499.94
2023-08-15T19:31:19.449Z,94491.56
2023-08-15T19:33:46.388Z,94494.50
2023-08-15T19:36:13.365Z,94497.47
2023-08-15T19:38:40.208Z,94493.63
2023-08-15T19:41:07.604Z,94498.75
2023-08-15T19:43:34.621Z,94495.59
2023-08-15T19:46:02.275Z,94506.22
2023-08-15T19:48:29.041Z,94520.94
2023-08-15T19:50:55.926Z,94510.63
2023-08-15T19:53:22.738Z,94517.44
2023-08-15T19:55:49.521Z,94517.22
2023-08-15T19:58:19.051Z,94527.63
2023-08-15T20:00:46.151Z,94525.16
2023-08-15T20:03:16.078Z,94522.50
2023-08-15T20:05:42.935Z,94520.13
2023-08-15T20:08:10.313Z,94519.53
2023-08-15T20:10:37.159Z,94528.22
2023-08-15T20:13:04.302Z,94544.13
2023-08-15T20:15:32.147Z,94548.88
2023-08-15T20:17:59.260Z,94545.63
2023-08-15T20:20:26.323Z,94536.06
2023-08-15T20:22:55.420Z,94532.44
2023-08-15T20:25:22.480Z,94529.88
2023-08-15T20:27:49.464Z,94536.19
2023-08-15T20:30:16.297Z,94531.41
2023-08-15T20:32:43.157Z,94526.97
2023-08-15T20:35:11.276Z,94530.69
2023-08-15T20:37:38.302Z,94543.03
2023-08-15T20:40:10.429Z,94538.50
2023-08-15T20:42:37.831Z,94531.84
2023-08-15T20:45:05.894Z,94539.06
2023-08-15T20:47:32.740Z,94530.31
2023-08-15T20:50:00.772Z,94546.47
2023-08-15T20:52:27.522Z,94542.88
2023-08-15T20:54:54.389Z,94552.81
2023-08-15T20:57:21.941Z,94548.28
2023-08-15T20:59:48.834Z,94553.72
2023-08-15T21:02:15.773Z,94552.94
2023-08-15T21:04:42.732Z,94544.84
2023-08-15T21:07:09.740Z,94539.03
2023-08-15T21:09:36.960Z,94536.56
2023-08-15T21:12:04.004Z,94541.47
2023-08-15T21:14:30.916Z,94536.28
2023-08-15T21:16:58.129Z,94544.41
2023-08-15T21:19:24.905Z,94534.16
2023-08-15T21:21:51.792Z,94536.22
2023-08-15T21:24:18.925Z,94547.50
2023-08-15T21:26:46.002Z,94546.94
2023-08-15T21:29:12.818Z,94546.28
2023-08-15T21:31:39.724Z,94544.88
2023-08-15T21:34:06.559Z,94540.84
2023-08-15T21:36:33.382Z,94547.59
2023-08-15T21:39:00.712Z,94546.84
2023-08-15T21:41:27.479Z,94547.19
2023-08-15T21:43:54.384Z,94548.81
2023-08-15T21:46:21.164Z,94541.75
2023-08-15T21:48:47.917Z,94543.47
2023-08-15T21:51:14.685Z,94544.59
2023-08-15T21:53:41.525Z,94550.81
2023-08-15T21:56:08.346Z,94554.25
2023-08-15T21:58:35.121Z,94556.75
2023-08-15T22:01:02.000Z,94561.44
2023-08-15T22:03:28.755Z,94554.13
2023-08-15T22:05:55.683Z,94565.38
2023-08-15T22:08:22.406Z,94561.72
2023-08-15T22:10:49.269Z,94563.59
2023-08-15T22:13:16.107Z,94561.84
2023-08-15T22:15:44.197Z,94564.84
2023-08-15T22:18:19.852Z,94555.84
2023-08-15T22:20:47.731Z,94566.75
2023-08-15T22:23:14.655Z,94560.97
2023-08-15T22:25:46.284Z,94560.47
2023-08-15T22:28:13.325Z,94562.00
2023-08-15T22:30:40.581Z,94545.38
2023-08-15T22:33:07.340Z,94547.78
2023-08-15T22:35:42.275Z,94550.94
2023-08-15T22:38:09.287Z,94543.63
2023-08-15T22:40:36.443Z,94550.50
2023-08-15T22:43:04.797Z,94532.38
2023-08-15T22:45:31.990Z,94529.56
2023-08-15T22:47:58.973Z,94540.69
2023-08-15T22:50:25.965Z,94550.63
2023-08-15T22:52:56.381Z,94534.84
2023-08-15T22:55:23.216Z,94552.03
2023-08-15T22:57:50.044Z,94526.16
2023-08-15T23:00:16.925Z,94544.31
2023-08-15T23:02:43.885Z,94540.16
2023-08-15T23:05:10.896Z,94537.22
2023-08-15T23:07:37.717Z,94542.13
2023-08-15T23:10:06.061Z,94541.06
2023-08-15T23:12:32.962Z,94537.34
2023-08-15T23:14:59.874Z,94532.13
2023-08-15T23:17:26.698Z,94532.22
2023-08-15T23:19:53.574Z,94519.28
2023-08-15T23:22:20.410Z,94534.03
2023-08-15T23:24:47.204Z,94522.47
2023-08-15T23:27:14.123Z,94524.56
2023-08-15T23:29:40.972Z,94528.50
2023-08-15T23:32:08.146Z,94519.59
2023-08-15T23:34:35.021Z,94526.16
2023-08-15T23:37:01.873Z,94529.91
2023-08-15T23:39:28.774Z,94519.38
2023-08-15T23:41:55.624Z,94531.22
2023-08-15T23:44:22.412Z,94533.59
2023-08-15T23:46:49.401Z,94538.34
2023-08-15T23:49:16.265Z,94537.84
2023-08-15T23:51:43.107Z,94533.94
2023-08-15T23:54:10.004Z,94533.41
2023-08-15T23:56:37.005Z,94539.97
2023-08-15T23:59:04.274Z,94538.66
